sensor_id;sensor_type;location;lat;lon;timestamp;temperature;humidity
4366;DHT22;2196;47.422;9.656;2023-03-03T00:02:15;3.50;99.90
4366;DHT22;2196;47.422;9.656;2023-03-03T00:04:42;3.40;99.90
4366;DHT22;2196;47.422;9.656;2023-03-03T00:07:10;3.50;99.90
4366;DHT22;2196;47.422;9.656;2023-03-03T00:09:41;3.40;99.90
4366;DHT22;2196;47.422;9.656;2023-03-03T00:12:20;3.50;99.90
4366;DHT22;2196;47.422;9.656;2023-03-03T00:14:48;3.40;99.90
4366;DHT22;2196;47.422;9.656;2023-03-03T00:17:20;3.40;99.90
4366;DHT22;2196;47.422;9.656;2023-03-03T00:19:48;3.40;99.90
4366;DHT22;2196;47.422;9.656;2023-03-03T00:22:24;3.40;99.90
4366;DHT22;2196;47.422;9.656;2023-03-03T00:24:54;3.40;99.90
4366;DHT22;2196;47.422;9.656;2023-03-03T00:27:28;3.40;99.90
4366;DHT22;2196;47.422;9.656;2023-03-03T00:29:56;3.40;99.90
4366;DHT22;2196;47.422;9.656;2023-03-03T00:32:25;3.40;99.90
4366;DHT22;2196;47.422;9.656;2023-03-03T00:34:53;3.40;99.90
4366;DHT22;2196;47.422;9.656;2023-03-03T00:37:29;3.40;99.90
4366;DHT22;2196;47.422;9.656;2023-03-03T00:42:48;3.30;99.90
4366;DHT22;2196;47.422;9.656;2023-03-03T00:45:37;3.30;99.90
4366;DHT22;2196;47.422;9.656;2023-03-03T00:48:25;3.30;99.90
4366;DHT22;2196;47.422;9.656;2023-03-03T00:50:53;3.30;99.90
4366;DHT22;2196;47.422;9.656;2023-03-03T00:53:22;3.30;99.90
4366;DHT22;2196;47.422;9.656;2023-03-03T00:55:51;3.30;99.90
4366;DHT22;2196;47.422;9.656;2023-03-03T00:58:19;3.30;99.90
4366;DHT22;2196;47.422;9.656;2023-03-03T01:00:47;3.30;99.90
4366;DHT22;2196;47.422;9.656;2023-03-03T01:03:16;3.30;99.90
4366;DHT22;2196;47.422;9.656;2023-03-03T01:05:44;3.20;99.90
4366;DHT22;2196;47.422;9.656;2023-03-03T01:08:11;3.20;99.90
4366;DHT22;2196;47.422;9.656;2023-03-03T01:10:41;3.20;99.90
4366;DHT22;2196;47.422;9.656;2023-03-03T01:13:09;3.30;99.90
4366;DHT22;2196;47.422;9.656;2023-03-03T01:15:38;3.20;99.90
4366;DHT22;2196;47.422;9.656;2023-03-03T01:18:05;3.10;99.90
4366;DHT22;2196;47.422;9.656;2023-03-03T01:20:32;3.10;99.90
4366;DHT22;2196;47.422;9.656;2023-03-03T01:22:59;3.10;99.90
4366;DHT22;2196;47.422;9.656;2023-03-03T01:25:26;3.20;99.90
4366;DHT22;2196;47.422;9.656;2023-03-03T01:27:53;3.20;99.90
4366;DHT22;2196;47.422;9.656;2023-03-03T01:30:22;3.10;99.90
4366;DHT22;2196;47.422;9.656;2023-03-03T01:32:50;3.10;99.90
4366;DHT22;2196;47.422;9.656;2023-03-03T01:35:17;3.00;99.90
4366;DHT22;2196;47.422;9.656;2023-03-03T01:37:45;3.00;99.90
4366;DHT22;2196;47.422;9.656;2023-03-03T01:40:15;3.00;99.90
4366;DHT22;2196;47.422;9.656;2023-03-03T01:42:45;3.10;99.90
4366;DHT22;2196;47.422;9.656;2023-03-03T01:45:16;3.10;99.90
4366;DHT22;2196;47.422;9.656;2023-03-03T01:47:51;3.10;99.90
4366;DHT22;2196;47.422;9.656;2023-03-03T01:50:44;3.10;99.90
4366;DHT22;2196;47.422;9.656;2023-03-03T01:53:17;3.10;99.90
4366;DHT22;2196;47.422;9.656;2023-03-03T01:55:46;3.00;99.90
4366;DHT22;2196;47.422;9.656;2023-03-03T01:58:16;3.10;99.90
4366;DHT22;2196;47.422;9.656;2023-03-03T02:00:50;3.10;99.90
4366;DHT22;2196;47.422;9.656;2023-03-03T02:03:19;3.00;99.90
4366;DHT22;2196;47.422;9.656;2023-03-03T02:05:49;3.00;99.90
4366;DHT22;2196;47.422;9.656;2023-03-03T02:08:19;3.00;99.90
4366;DHT22;2196;47.422;9.656;2023-03-03T02:10:48;2.90;99.90
4366;DHT22;2196;47.422;9.656;2023-03-03T02:13:16;3.00;99.90
4366;DHT22;2196;47.422;9.656;2023-03-03T02:15:43;3.00;99.90
4366;DHT22;2196;47.422;9.656;2023-03-03T02:18:12;2.90;99.90
4366;DHT22;2196;47.422;9.656;2023-03-03T02:20:53;2.90;99.90
4366;DHT22;2196;47.422;9.656;2023-03-03T02:23:25;2.90;99.90
4366;DHT22;2196;47.422;9.656;2023-03-03T02:26:04;2.80;99.90
4366;DHT22;2196;47.422;9.656;2023-03-03T02:28:33;2.80;99.90
4366;DHT22;2196;47.422;9.656;2023-03-03T02:31:01;2.90;99.90
4366;DHT22;2196;47.422;9.656;2023-03-03T02:33:28;2.80;99.90
4366;DHT22;2196;47.422;9.656;2023-03-03T02:35:55;2.80;99.90
4366;DHT22;2196;47.422;9.656;2023-03-03T02:38:27;2.80;99.90
4366;DHT22;2196;47.422;9.656;2023-03-03T02:41:04;2.90;99.90
4366;DHT22;2196;47.422;9.656;2023-03-03T02:43:40;2.80;99.90
4366;DHT22;2196;47.422;9.656;2023-03-03T02:46:08;2.80;99.90
4366;DHT22;2196;47.422;9.656;2023-03-03T02:48:35;2.80;99.90
4366;DHT22;2196;47.422;9.656;2023-03-03T02:51:02;2.90;99.90
4366;DHT22;2196;47.422;9.656;2023-03-03T02:53:29;2.90;99.90
4366;DHT22;2196;47.422;9.656;2023-03-03T02:55:56;2.90;99.90
4366;DHT22;2196;47.422;9.656;2023-03-03T02:58:24;2.90;99.90
4366;DHT22;2196;47.422;9.656;2023-03-03T03:00:52;2.90;99.90
4366;DHT22;2196;47.422;9.656;2023-03-03T03:03:20;3.10;99.90
4366;DHT22;2196;47.422;9.656;2023-03-03T03:05:47;3.10;99.90
4366;DHT22;2196;47.422;9.656;2023-03-03T03:08:14;3.10;99.90
4366;DHT22;2196;47.422;9.656;2023-03-03T03:10:41;3.00;99.90
4366;DHT22;2196;47.422;9.656;2023-03-03T03:13:07;3.00;99.90
4366;DHT22;2196;47.422;9.656;2023-03-03T03:15:36;3.00;99.90
4366;DHT22;2196;47.422;9.656;2023-03-03T03:18:06;3.00;99.90
4366;DHT22;2196;47.422;9.656;2023-03-03T03:20:35;2.90;99.90
4366;DHT22;2196;47.422;9.656;2023-03-03T03:23:04;3.00;99.90
4366;DHT22;2196;47.422;9.656;2023-03-03T03:25:32;3.00;99.90
4366;DHT22;2196;47.422;9.656;2023-03-03T03:27:59;3.00;99.90
4366;DHT22;2196;47.422;9.656;2023-03-03T03:30:26;3.10;99.90
4366;DHT22;2196;47.422;9.656;2023-03-03T03:32:54;3.00;99.90
4366;DHT22;2196;47.422;9.656;2023-03-03T03:35:21;3.10;99.90
4366;DHT22;2196;47.422;9.656;2023-03-03T03:37:48;3.00;99.90
4366;DHT22;2196;47.422;9.656;2023-03-03T03:40:15;3.00;99.90
4366;DHT22;2196;47.422;9.656;2023-03-03T03:42:44;3.10;99.90
4366;DHT22;2196;47.422;9.656;2023-03-03T03:45:12;3.10;99.90
4366;DHT22;2196;47.422;9.656;2023-03-03T03:47:43;3.10;99.90
4366;DHT22;2196;47.422;9.656;2023-03-03T03:50:12;3.10;99.90
4366;DHT22;2196;47.422;9.656;2023-03-03T03:52:39;3.10;99.90
4366;DHT22;2196;47.422;9.656;2023-03-03T03:55:08;3.00;99.90
4366;DHT22;2196;47.422;9.656;2023-03-03T03:57:35;3.00;99.90
4366;DHT22;2196;47.422;9.656;2023-03-03T04:00:03;3.00;99.90
4366;DHT22;2196;47.422;9.656;2023-03-03T04:02:30;2.90;99.90
4366;DHT22;2196;47.422;9.656;2023-03-03T04:04:57;2.80;99.90
4366;DHT22;2196;47.422;9.656;2023-03-03T04:07:25;2.70;99.90
4366;DHT22;2196;47.422;9.656;2023-03-03T04:09:52;2.70;99.90
4366;DHT22;2196;47.422;9.656;2023-03-03T04:12:19;2.70;99.90
4366;DHT22;2196;47.422;9.656;2023-03-03T04:14:46;2.60;99.90
4366;DHT22;2196;47.422;9.656;2023-03-03T04:17:15;2.60;99.90
4366;DHT22;2196;47.422;9.656;2023-03-03T04:19:43;2.70;99.90
4366;DHT22;2196;47.422;9.656;2023-03-03T04:22:10;2.60;99.90
4366;DHT22;2196;47.422;9.656;2023-03-03T04:24:39;2.60;99.90
4366;DHT22;2196;47.422;9.656;2023-03-03T04:27:07;2.60;99.90
4366;DHT22;2196;47.422;9.656;2023-03-03T04:29:34;2.70;99.90
4366;DHT22;2196;47.422;9.656;2023-03-03T04:32:01;2.70;99.90
4366;DHT22;2196;47.422;9.656;2023-03-03T04:34:28;2.70;99.90
4366;DHT22;2196;47.422;9.656;2023-03-03T04:36:55;2.70;99.90
4366;DHT22;2196;47.422;9.656;2023-03-03T04:39:22;2.70;99.90
4366;DHT22;2196;47.422;9.656;2023-03-03T04:41:50;2.80;99.90
4366;DHT22;2196;47.422;9.656;2023-03-03T04:44:17;2.80;99.90
4366;DHT22;2196;47.422;9.656;2023-03-03T04:46:44;2.80;99.90
4366;DHT22;2196;47.422;9.656;2023-03-03T04:49:11;2.80;99.90
4366;DHT22;2196;47.422;9.656;2023-03-03T04:51:38;2.80;99.90
4366;DHT22;2196;47.422;9.656;2023-03-03T04:54:05;2.80;99.90
4366;DHT22;2196;47.422;9.656;2023-03-03T04:56:32;2.80;99.90
4366;DHT22;2196;47.422;9.656;2023-03-03T04:59:00;2.80;99.90
4366;DHT22;2196;47.422;9.656;2023-03-03T05:01:27;2.90;99.90
4366;DHT22;2196;47.422;9.656;2023-03-03T05:03:54;2.90;99.90
4366;DHT22;2196;47.422;9.656;2023-03-03T05:06:21;2.90;99.90
4366;DHT22;2196;47.422;9.656;2023-03-03T05:08:49;2.90;99.90
4366;DHT22;2196;47.422;9.656;2023-03-03T05:11:16;2.90;99.90
4366;DHT22;2196;47.422;9.656;2023-03-03T05:13:43;2.80;99.90
4366;DHT22;2196;47.422;9.656;2023-03-03T05:16:12;2.80;99.90
4366;DHT22;2196;47.422;9.656;2023-03-03T05:18:39;2.90;99.90
4366;DHT22;2196;47.422;9.656;2023-03-03T05:21:06;2.90;99.90
4366;DHT22;2196;47.422;9.656;2023-03-03T05:23:33;2.90;99.90
4366;DHT22;2196;47.422;9.656;2023-03-03T05:26:00;2.80;99.90
4366;DHT22;2196;47.422;9.656;2023-03-03T05:28:27;2.80;99.90
4366;DHT22;2196;47.422;9.656;2023-03-03T05:30:54;2.80;99.90
4366;DHT22;2196;47.422;9.656;2023-03-03T05:33:22;2.90;99.90
4366;DHT22;2196;47.422;9.656;2023-03-03T05:35:52;2.90;99.90
4366;DHT22;2196;47.422;9.656;2023-03-03T05:38:20;2.90;99.90
4366;DHT22;2196;47.422;9.656;2023-03-03T05:40:47;2.80;99.90
4366;DHT22;2196;47.422;9.656;2023-03-03T05:43:14;2.80;99.90
4366;DHT22;2196;47.422;9.656;2023-03-03T05:45:42;2.90;99.90
4366;DHT22;2196;47.422;9.656;2023-03-03T05:48:10;2.80;99.90
4366;DHT22;2196;47.422;9.656;2023-03-03T05:50:38;2.80;99.90
4366;DHT22;2196;47.422;9.656;2023-03-03T05:53:05;2.90;99.90
4366;DHT22;2196;47.422;9.656;2023-03-03T05:55:32;2.90;99.90
4366;DHT22;2196;47.422;9.656;2023-03-03T05:57:59;2.80;99.90
4366;DHT22;2196;47.422;9.656;2023-03-03T06:00:26;2.80;99.90
4366;DHT22;2196;47.422;9.656;2023-03-03T06:02:53;2.80;99.90
4366;DHT22;2196;47.422;9.656;2023-03-03T06:05:20;2.80;99.90
4366;DHT22;2196;47.422;9.656;2023-03-03T06:07:49;2.80;99.90
4366;DHT22;2196;47.422;9.656;2023-03-03T06:10:16;2.90;99.90
4366;DHT22;2196;47.422;9.656;2023-03-03T06:12:45;2.90;99.90
4366;DHT22;2196;47.422;9.656;2023-03-03T06:15:12;2.90;99.90
4366;DHT22;2196;47.422;9.656;2023-03-03T06:17:39;2.90;99.90
4366;DHT22;2196;47.422;9.656;2023-03-03T06:20:08;3.00;99.90
4366;DHT22;2196;47.422;9.656;2023-03-03T06:22:35;3.00;99.90
4366;DHT22;2196;47.422;9.656;2023-03-03T06:25:09;3.00;99.90
4366;DHT22;2196;47.422;9.656;2023-03-03T06:27:37;3.00;99.90
4366;DHT22;2196;47.422;9.656;2023-03-03T06:30:05;3.00;99.90
4366;DHT22;2196;47.422;9.656;2023-03-03T06:32:32;3.10;99.90
4366;DHT22;2196;47.422;9.656;2023-03-03T06:34:59;3.20;99.90
4366;DHT22;2196;47.422;9.656;2023-03-03T06:37:26;3.20;99.90
4366;DHT22;2196;47.422;9.656;2023-03-03T06:39:54;3.20;99.90
4366;DHT22;2196;47.422;9.656;2023-03-03T06:42:22;3.20;99.90
4366;DHT22;2196;47.422;9.656;2023-03-03T06:44:49;3.30;99.90
4366;DHT22;2196;47.422;9.656;2023-03-03T06:47:16;3.30;99.90
4366;DHT22;2196;47.422;9.656;2023-03-03T06:49:44;3.30;99.90
4366;DHT22;2196;47.422;9.656;2023-03-03T06:52:12;3.30;99.90
4366;DHT22;2196;47.422;9.656;2023-03-03T06:54:40;3.40;99.90
4366;DHT22;2196;47.422;9.656;2023-03-03T06:57:15;3.50;99.90
4366;DHT22;2196;47.422;9.656;2023-03-03T06:59:45;3.60;99.90
4366;DHT22;2196;47.422;9.656;2023-03-03T07:02:16;3.60;99.90
4366;DHT22;2196;47.422;9.656;2023-03-03T07:04:44;3.60;99.90
4366;DHT22;2196;47.422;9.656;2023-03-03T07:07:16;3.60;99.90
4366;DHT22;2196;47.422;9.656;2023-03-03T07:09:47;3.60;99.90
4366;DHT22;2196;47.422;9.656;2023-03-03T07:12:20;3.60;99.90
4366;DHT22;2196;47.422;9.656;2023-03-03T07:14:52;3.60;99.90
4366;DHT22;2196;47.422;9.656;2023-03-03T07:17:24;3.70;99.90
4366;DHT22;2196;47.422;9.656;2023-03-03T07:19:51;3.70;99.90
4366;DHT22;2196;47.422;9.656;2023-03-03T07:22:21;3.70;99.90
4366;DHT22;2196;47.422;9.656;2023-03-03T07:24:51;3.70;99.90
4366;DHT22;2196;47.422;9.656;2023-03-03T07:27:22;3.70;99.90
4366;DHT22;2196;47.422;9.656;2023-03-03T07:29:53;3.70;99.90
4366;DHT22;2196;47.422;9.656;2023-03-03T07:32:29;3.70;99.90
4366;DHT22;2196;47.422;9.656;2023-03-03T07:34:57;3.70;99.90
4366;DHT22;2196;47.422;9.656;2023-03-03T07:37:29;3.70;99.90
4366;DHT22;2196;47.422;9.656;2023-03-03T07:39:57;3.80;99.90
4366;DHT22;2196;47.422;9.656;2023-03-03T07:42:26;3.80;99.90
4366;DHT22;2196;47.422;9.656;2023-03-03T07:44:57;3.90;99.90
4366;DHT22;2196;47.422;9.656;2023-03-03T07:47:25;4.00;99.90
4366;DHT22;2196;47.422;9.656;2023-03-03T07:49:54;4.00;99.90
4366;DHT22;2196;47.422;9.656;2023-03-03T07:52:26;4.10;99.90
4366;DHT22;2196;47.422;9.656;2023-03-03T07:54:55;4.10;99.90
4366;DHT22;2196;47.422;9.656;2023-03-03T07:57:25;4.20;99.90
4366;DHT22;2196;47.422;9.656;2023-03-03T07:59:59;4.20;99.90
4366;DHT22;2196;47.422;9.656;2023-03-03T08:02:37;4.20;99.90
4366;DHT22;2196;47.422;9.656;2023-03-03T08:05:35;4.30;99.90
4366;DHT22;2196;47.422;9.656;2023-03-03T08:08:14;4.40;99.90
4366;DHT22;2196;47.422;9.656;2023-03-03T08:10:47;4.30;99.90
4366;DHT22;2196;47.422;9.656;2023-03-03T08:13:18;4.20;99.90
4366;DHT22;2196;47.422;9.656;2023-03-03T08:15:49;4.30;99.90
4366;DHT22;2196;47.422;9.656;2023-03-03T08:18:29;4.30;99.90
4366;DHT22;2196;47.422;9.656;2023-03-03T08:20:59;4.30;99.90
4366;DHT22;2196;47.422;9.656;2023-03-03T08:23:26;4.30;99.90
4366;DHT22;2196;47.422;9.656;2023-03-03T08:25:53;4.30;99.90
4366;DHT22;2196;47.422;9.656;2023-03-03T08:28:21;4.40;99.90
4366;DHT22;2196;47.422;9.656;2023-03-03T08:30:51;4.40;99.90
4366;DHT22;2196;47.422;9.656;2023-03-03T08:33:18;4.40;99.90
4366;DHT22;2196;47.422;9.656;2023-03-03T08:35:45;4.50;99.90
4366;DHT22;2196;47.422;9.656;2023-03-03T08:38:15;4.60;99.90
4366;DHT22;2196;47.422;9.656;2023-03-03T08:40:42;4.60;99.90
4366;DHT22;2196;47.422;9.656;2023-03-03T08:43:10;4.60;99.90
4366;DHT22;2196;47.422;9.656;2023-03-03T08:45:42;4.70;99.90
4366;DHT22;2196;47.422;9.656;2023-03-03T08:48:11;4.60;99.90
4366;DHT22;2196;47.422;9.656;2023-03-03T08:50:38;4.70;99.90
4366;DHT22;2196;47.422;9.656;2023-03-03T08:53:05;4.70;99.90
4366;DHT22;2196;47.422;9.656;2023-03-03T08:55:32;4.60;99.90
4366;DHT22;2196;47.422;9.656;2023-03-03T08:57:59;4.70;99.90
4366;DHT22;2196;47.422;9.656;2023-03-03T09:00:26;4.70;99.90
4366;DHT22;2196;47.422;9.656;2023-03-03T09:02:53;4.90;99.90
4366;DHT22;2196;47.422;9.656;2023-03-03T09:05:23;4.80;99.90
4366;DHT22;2196;47.422;9.656;2023-03-03T09:07:51;4.80;99.90
4366;DHT22;2196;47.422;9.656;2023-03-03T09:10:20;4.90;99.90
4366;DHT22;2196;47.422;9.656;2023-03-03T09:12:52;4.80;99.90
4366;DHT22;2196;47.422;9.656;2023-03-03T09:15:23;4.80;99.90
4366;DHT22;2196;47.422;9.656;2023-03-03T09:17:51;4.90;99.90
4366;DHT22;2196;47.422;9.656;2023-03-03T09:20:30;4.90;99.90
4366;DHT22;2196;47.422;9.656;2023-03-03T09:22:59;4.90;99.90
4366;DHT22;2196;47.422;9.656;2023-03-03T09:25:42;4.90;99.90
4366;DHT22;2196;47.422;9.656;2023-03-03T09:28:21;5.00;99.90
4366;DHT22;2196;47.422;9.656;2023-03-03T09:30:49;5.10;99.90
4366;DHT22;2196;47.422;9.656;2023-03-03T09:33:26;5.10;99.90
4366;DHT22;2196;47.422;9.656;2023-03-03T09:36:01;5.20;99.90
4366;DHT22;2196;47.422;9.656;2023-03-03T09:38:30;5.30;99.90
4366;DHT22;2196;47.422;9.656;2023-03-03T09:44:21;5.30;99.90
4366;DHT22;2196;47.422;9.656;2023-03-03T09:47:02;5.20;99.90
4366;DHT22;2196;47.422;9.656;2023-03-03T09:49:33;5.20;99.90
4366;DHT22;2196;47.422;9.656;2023-03-03T09:52:17;5.20;99.90
4366;DHT22;2196;47.422;9.656;2023-03-03T09:54:55;5.30;99.90
4366;DHT22;2196;47.422;9.656;2023-03-03T09:57:34;5.40;99.90
4366;DHT22;2196;47.422;9.656;2023-03-03T10:00:21;5.40;99.90
4366;DHT22;2196;47.422;9.656;2023-03-03T10:03:02;5.40;99.90
4366;DHT22;2196;47.422;9.656;2023-03-03T10:05:41;5.40;99.90
4366;DHT22;2196;47.422;9.656;2023-03-03T10:08:36;5.40;99.90
4366;DHT22;2196;47.422;9.656;2023-03-03T10:11:15;5.40;99.90
4366;DHT22;2196;47.422;9.656;2023-03-03T10:14:03;5.40;99.90
4366;DHT22;2196;47.422;9.656;2023-03-03T10:16:55;5.40;99.90
4366;DHT22;2196;47.422;9.656;2023-03-03T10:19:36;5.60;99.90
4366;DHT22;2196;47.422;9.656;2023-03-03T10:22:17;5.80;99.90
4366;DHT22;2196;47.422;9.656;2023-03-03T10:25:00;5.70;99.90
4366;DHT22;2196;47.422;9.656;2023-03-03T10:27:48;5.70;99.90
4366;DHT22;2196;47.422;9.656;2023-03-03T10:30:20;5.90;99.90
4366;DHT22;2196;47.422;9.656;2023-03-03T10:32:55;5.90;99.90
4366;DHT22;2196;47.422;9.656;2023-03-03T10:35:39;5.90;99.90
4366;DHT22;2196;47.422;9.656;2023-03-03T10:38:31;6.00;99.90
4366;DHT22;2196;47.422;9.656;2023-03-03T10:41:10;5.90;99.90
4366;DHT22;2196;47.422;9.656;2023-03-03T10:44:00;5.50;99.90
4366;DHT22;2196;47.422;9.656;2023-03-03T10:46:39;5.50;99.90
4366;DHT22;2196;47.422;9.656;2023-03-03T10:49:17;5.60;99.90
4366;DHT22;2196;47.422;9.656;2023-03-03T10:52:03;5.60;99.90
4366;DHT22;2196;47.422;9.656;2023-03-03T10:54:52;5.60;99.90
4366;DHT22;2196;47.422;9.656;2023-03-03T10:57:30;5.60;99.90
4366;DHT22;2196;47.422;9.656;2023-03-03T11:00:14;5.60;99.90
4366;DHT22;2196;47.422;9.656;2023-03-03T11:02:55;5.60;99.90
4366;DHT22;2196;47.422;9.656;2023-03-03T11:05:32;5.70;99.90
4366;DHT22;2196;47.422;9.656;2023-03-03T11:08:06;5.80;99.90
4366;DHT22;2196;47.422;9.656;2023-03-03T11:10:44;5.90;99.90
4366;DHT22;2196;47.422;9.656;2023-03-03T11:13:20;6.00;99.90
4366;DHT22;2196;47.422;9.656;2023-03-03T11:16:12;6.10;99.90
4366;DHT22;2196;47.422;9.656;2023-03-03T11:18:55;6.20;99.90
4366;DHT22;2196;47.422;9.656;2023-03-03T11:21:30;6.10;99.90
4366;DHT22;2196;47.422;9.656;2023-03-03T11:27:19;6.30;99.90
4366;DHT22;2196;47.422;9.656;2023-03-03T11:32:49;6.50;99.90
4366;DHT22;2196;47.422;9.656;2023-03-03T11:35:22;6.50;99.90
4366;DHT22;2196;47.422;9.656;2023-03-03T11:37:58;6.30;99.90
4366;DHT22;2196;47.422;9.656;2023-03-03T11:40:35;6.50;99.90
4366;DHT22;2196;47.422;9.656;2023-03-03T11:43:11;6.60;99.90
4366;DHT22;2196;47.422;9.656;2023-03-03T11:45:44;6.70;99.90
4366;DHT22;2196;47.422;9.656;2023-03-03T11:48:17;6.90;99.90
4366;DHT22;2196;47.422;9.656;2023-03-03T11:50:54;6.90;99.90
4366;DHT22;2196;47.422;9.656;2023-03-03T11:53:32;6.90;99.90
4366;DHT22;2196;47.422;9.656;2023-03-03T11:56:07;6.70;99.90
4366;DHT22;2196;47.422;9.656;2023-03-03T11:58:43;6.80;99.90
4366;DHT22;2196;47.422;9.656;2023-03-03T12:01:19;7.00;99.90
4366;DHT22;2196;47.422;9.656;2023-03-03T12:03:49;7.10;99.90
4366;DHT22;2196;47.422;9.656;2023-03-03T12:06:24;7.10;99.90
4366;DHT22;2196;47.422;9.656;2023-03-03T12:09:08;7.00;99.90
4366;DHT22;2196;47.422;9.656;2023-03-03T12:11:47;7.00;99.90
4366;DHT22;2196;47.422;9.656;2023-03-03T12:14:26;7.10;99.90
4366;DHT22;2196;47.422;9.656;2023-03-03T12:16:58;6.90;99.90
4366;DHT22;2196;47.422;9.656;2023-03-03T12:19:34;6.90;99.90
4366;DHT22;2196;47.422;9.656;2023-03-03T12:22:15;6.90;99.90
4366;DHT22;2196;47.422;9.656;2023-03-03T12:25:10;7.20;99.90
4366;DHT22;2196;47.422;9.656;2023-03-03T12:27:47;7.20;99.90
4366;DHT22;2196;47.422;9.656;2023-03-03T12:30:24;7.30;99.90
4366;DHT22;2196;47.422;9.656;2023-03-03T12:33:13;7.20;99.90
4366;DHT22;2196;47.422;9.656;2023-03-03T12:35:50;7.20;99.90
4366;DHT22;2196;47.422;9.656;2023-03-03T12:38:29;7.20;99.90
4366;DHT22;2196;47.422;9.656;2023-03-03T12:41:06;7.20;99.90
4366;DHT22;2196;47.422;9.656;2023-03-03T12:43:55;7.20;99.90
4366;DHT22;2196;47.422;9.656;2023-03-03T12:46:31;7.10;99.90
4366;DHT22;2196;47.422;9.656;2023-03-03T12:49:02;7.10;99.90
4366;DHT22;2196;47.422;9.656;2023-03-03T12:51:36;7.30;99.90
4366;DHT22;2196;47.422;9.656;2023-03-03T12:57:15;7.30;99.90
4366;DHT22;2196;47.422;9.656;2023-03-03T13:00:01;7.20;99.90
4366;DHT22;2196;47.422;9.656;2023-03-03T13:02:39;7.10;99.90
4366;DHT22;2196;47.422;9.656;2023-03-03T13:05:19;7.30;99.90
4366;DHT22;2196;47.422;9.656;2023-03-03T13:07:55;7.40;99.90
4366;DHT22;2196;47.422;9.656;2023-03-03T13:10:26;6.90;99.90
4366;DHT22;2196;47.422;9.656;2023-03-03T13:13:00;6.90;99.90
4366;DHT22;2196;47.422;9.656;2023-03-03T13:15:30;7.00;99.90
4366;DHT22;2196;47.422;9.656;2023-03-03T13:18:10;7.00;99.90
4366;DHT22;2196;47.422;9.656;2023-03-03T13:20:48;7.20;99.90
4366;DHT22;2196;47.422;9.656;2023-03-03T13:23:26;7.30;99.90
4366;DHT22;2196;47.422;9.656;2023-03-03T13:26:00;7.40;99.90
4366;DHT22;2196;47.422;9.656;2023-03-03T13:28:33;7.60;99.90
4366;DHT22;2196;47.422;9.656;2023-03-03T13:31:06;7.70;99.90
4366;DHT22;2196;47.422;9.656;2023-03-03T13:33:35;7.70;99.90
4366;DHT22;2196;47.422;9.656;2023-03-03T13:36:07;7.60;99.90
4366;DHT22;2196;47.422;9.656;2023-03-03T13:38:39;7.50;99.90
4366;DHT22;2196;47.422;9.656;2023-03-03T13:41:14;7.20;99.90
4366;DHT22;2196;47.422;9.656;2023-03-03T13:43:45;7.10;99.90
4366;DHT22;2196;47.422;9.656;2023-03-03T13:46:17;7.00;99.90
4366;DHT22;2196;47.422;9.656;2023-03-03T13:49:17;7.10;99.90
4366;DHT22;2196;47.422;9.656;2023-03-03T13:51:50;7.40;99.90
4366;DHT22;2196;47.422;9.656;2023-03-03T13:54:39;7.30;99.90
4366;DHT22;2196;47.422;9.656;2023-03-03T13:57:27;7.30;99.90
4366;DHT22;2196;47.422;9.656;2023-03-03T14:00:06;7.40;99.90
4366;DHT22;2196;47.422;9.656;2023-03-03T14:05:35;7.10;99.90
4366;DHT22;2196;47.422;9.656;2023-03-03T14:08:11;7.00;99.90
4366;DHT22;2196;47.422;9.656;2023-03-03T14:10:46;7.00;99.90
4366;DHT22;2196;47.422;9.656;2023-03-03T14:13:18;7.00;99.90
4366;DHT22;2196;47.422;9.656;2023-03-03T14:15:53;7.00;99.90
4366;DHT22;2196;47.422;9.656;2023-03-03T14:18:27;6.90;99.90
4366;DHT22;2196;47.422;9.656;2023-03-03T14:20:58;6.80;99.90
4366;DHT22;2196;47.422;9.656;2023-03-03T14:23:33;6.80;99.90
4366;DHT22;2196;47.422;9.656;2023-03-03T14:26:07;6.90;99.90
4366;DHT22;2196;47.422;9.656;2023-03-03T14:28:39;7.00;99.90
4366;DHT22;2196;47.422;9.656;2023-03-03T14:31:17;7.00;99.90
4366;DHT22;2196;47.422;9.656;2023-03-03T14:33:56;7.00;99.90
4366;DHT22;2196;47.422;9.656;2023-03-03T14:36:30;6.90;99.90
4366;DHT22;2196;47.422;9.656;2023-03-03T14:38:58;6.90;99.90
4366;DHT22;2196;47.422;9.656;2023-03-03T14:41:39;6.90;99.90
4366;DHT22;2196;47.422;9.656;2023-03-03T14:44:24;7.00;99.90
4366;DHT22;2196;47.422;9.656;2023-03-03T14:47:10;6.90;99.90
4366;DHT22;2196;47.422;9.656;2023-03-03T14:49:39;7.00;99.90
4366;DHT22;2196;47.422;9.656;2023-03-03T14:52:19;7.10;99.90
4366;DHT22;2196;47.422;9.656;2023-03-03T14:54:49;7.20;99.90
4366;DHT22;2196;47.422;9.656;2023-03-03T14:57:17;7.20;99.90
4366;DHT22;2196;47.422;9.656;2023-03-03T14:59:56;7.30;99.90
4366;DHT22;2196;47.422;9.656;2023-03-03T15:02:34;7.30;99.90
4366;DHT22;2196;47.422;9.656;2023-03-03T15:05:18;7.20;99.90
4366;DHT22;2196;47.422;9.656;2023-03-03T15:07:48;7.30;99.90
4366;DHT22;2196;47.422;9.656;2023-03-03T15:10:34;7.20;99.90
4366;DHT22;2196;47.422;9.656;2023-03-03T15:16:10;6.90;99.90
4366;DHT22;2196;47.422;9.656;2023-03-03T15:19:15;6.90;99.90
4366;DHT22;2196;47.422;9.656;2023-03-03T15:21:55;6.90;99.90
4366;DHT22;2196;47.422;9.656;2023-03-03T15:24:30;6.90;99.90
4366;DHT22;2196;47.422;9.656;2023-03-03T15:27:05;6.90;99.90
4366;DHT22;2196;47.422;9.656;2023-03-03T15:29:37;6.90;99.90
4366;DHT22;2196;47.422;9.656;2023-03-03T15:32:10;6.90;99.90
4366;DHT22;2196;47.422;9.656;2023-03-03T15:34:43;6.90;99.90
4366;DHT22;2196;47.422;9.656;2023-03-03T15:37:26;6.80;99.90
4366;DHT22;2196;47.422;9.656;2023-03-03T15:40:07;6.80;99.90
4366;DHT22;2196;47.422;9.656;2023-03-03T15:42:48;6.70;99.90
4366;DHT22;2196;47.422;9.656;2023-03-03T15:45:23;6.60;99.90
4366;DHT22;2196;47.422;9.656;2023-03-03T15:48:07;6.60;99.90
4366;DHT22;2196;47.422;9.656;2023-03-03T15:50:43;6.60;99.90
4366;DHT22;2196;47.422;9.656;2023-03-03T15:53:20;6.60;99.90
4366;DHT22;2196;47.422;9.656;2023-03-03T15:55:58;6.60;99.90
4366;DHT22;2196;47.422;9.656;2023-03-03T15:58:50;6.60;99.90
4366;DHT22;2196;47.422;9.656;2023-03-03T16:01:24;6.60;99.90
4366;DHT22;2196;47.422;9.656;2023-03-03T16:03:56;6.60;99.90
4366;DHT22;2196;47.422;9.656;2023-03-03T16:06:30;6.60;99.90
4366;DHT22;2196;47.422;9.656;2023-03-03T16:09:02;6.50;99.90
4366;DHT22;2196;47.422;9.656;2023-03-03T16:11:36;6.60;99.90
4366;DHT22;2196;47.422;9.656;2023-03-03T16:14:46;6.60;99.90
4366;DHT22;2196;47.422;9.656;2023-03-03T16:17:21;6.50;99.90
4366;DHT22;2196;47.422;9.656;2023-03-03T16:19:55;6.50;99.90
4366;DHT22;2196;47.422;9.656;2023-03-03T16:22:48;6.40;99.90
4366;DHT22;2196;47.422;9.656;2023-03-03T16:25:31;6.40;99.90
4366;DHT22;2196;47.422;9.656;2023-03-03T16:28:04;6.30;99.90
4366;DHT22;2196;47.422;9.656;2023-03-03T16:30:37;6.40;99.90
4366;DHT22;2196;47.422;9.656;2023-03-03T16:33:17;6.40;99.90
4366;DHT22;2196;47.422;9.656;2023-03-03T16:35:50;6.40;99.90
4366;DHT22;2196;47.422;9.656;2023-03-03T16:38:24;6.30;99.90
4366;DHT22;2196;47.422;9.656;2023-03-03T16:40:56;6.30;99.90
4366;DHT22;2196;47.422;9.656;2023-03-03T16:43:31;6.20;99.90
4366;DHT22;2196;47.422;9.656;2023-03-03T16:46:09;6.10;99.90
4366;DHT22;2196;47.422;9.656;2023-03-03T16:48:43;6.20;99.90
4366;DHT22;2196;47.422;9.656;2023-03-03T16:51:25;6.20;99.90
4366;DHT22;2196;47.422;9.656;2023-03-03T16:54:02;6.20;99.90
4366;DHT22;2196;47.422;9.656;2023-03-03T16:56:35;6.10;99.90
4366;DHT22;2196;47.422;9.656;2023-03-03T16:59:27;6.10;99.90
4366;DHT22;2196;47.422;9.656;2023-03-03T17:02:07;6.00;99.90
4366;DHT22;2196;47.422;9.656;2023-03-03T17:04:42;6.00;99.90
4366;DHT22;2196;47.422;9.656;2023-03-03T17:07:21;6.00;99.90
4366;DHT22;2196;47.422;9.656;2023-03-03T17:10:04;5.90;99.90
4366;DHT22;2196;47.422;9.656;2023-03-03T17:12:57;5.90;99.90
4366;DHT22;2196;47.422;9.656;2023-03-03T17:15:37;5.80;99.90
4366;DHT22;2196;47.422;9.656;2023-03-03T17:18:12;5.80;99.90